sensor_id;sensor_type;location;lat;lon;timestamp;temperature;humidity
67279;DHT22;54193;53.746;10.058;2023-05-16T00:01:15;10.10;83.06
67279;DHT22;54193;53.746;10.058;2023-05-16T00:04:01;10.16;82.84
67279;DHT22;54193;53.746;10.058;2023-05-16T00:06:48;10.10;82.87
67279;DHT22;54193;53.746;10.058;2023-05-16T00:09:34;10.10;83.18
67279;DHT22;54193;53.746;10.058;2023-05-16T00:12:19;10.09;82.71
67279;DHT22;54193;53.746;10.058;2023-05-16T00:15:07;10.12;82.93
67279;DHT22;54193;53.746;10.058;2023-05-16T00:17:56;10.10;82.88
67279;DHT22;54193;53.746;10.058;2023-05-16T00:20:45;10.17;82.80
67279;DHT22;54193;53.746;10.058;2023-05-16T00:23:32;10.16;82.70
67279;DHT22;54193;53.746;10.058;2023-05-16T00:26:18;10.23;82.66
67279;DHT22;54193;53.746;10.058;2023-05-16T00:29:03;10.13;82.28
67279;DHT22;54193;53.746;10.058;2023-05-16T00:31:49;10.20;81.97
67279;DHT22;54193;53.746;10.058;2023-05-16T00:34:35;10.26;81.99
67279;DHT22;54193;53.746;10.058;2023-05-16T00:37:20;10.34;81.81
67279;DHT22;54193;53.746;10.058;2023-05-16T00:40:06;10.26;81.70
67279;DHT22;54193;53.746;10.058;2023-05-16T00:42:52;10.37;81.48
67279;DHT22;54193;53.746;10.058;2023-05-16T00:45:38;10.37;81.71
67279;DHT22;54193;53.746;10.058;2023-05-16T00:48:24;10.36;81.69
67279;DHT22;54193;53.746;10.058;2023-05-16T00:51:10;10.41;81.82
67279;DHT22;54193;53.746;10.058;2023-05-16T00:53:56;10.36;81.98
67279;DHT22;54193;53.746;10.058;2023-05-16T00:56:42;10.32;82.22
67279;DHT22;54193;53.746;10.058;2023-05-16T00:59:28;10.37;82.04
67279;DHT22;54193;53.746;10.058;2023-05-16T01:02:14;10.33;82.36
67279;DHT22;54193;53.746;10.058;2023-05-16T01:05:00;10.33;82.46
67279;DHT22;54193;53.746;10.058;2023-05-16T01:07:45;10.34;82.37
67279;DHT22;54193;53.746;10.058;2023-05-16T01:16:46;10.34;82.65
67279;DHT22;54193;53.746;10.058;2023-05-16T01:22:56;10.33;82.81
67279;DHT22;54193;53.746;10.058;2023-05-16T01:28:31;10.40;83.05
67279;DHT22;54193;53.746;10.058;2023-05-16T01:31:16;10.37;83.08
67279;DHT22;54193;53.746;10.058;2023-05-16T01:34:02;10.38;83.12
67279;DHT22;54193;53.746;10.058;2023-05-16T01:36:51;10.34;82.95
67279;DHT22;54193;53.746;10.058;2023-05-16T01:39:44;10.34;83.32
67279;DHT22;54193;53.746;10.058;2023-05-16T01:42:32;10.21;83.69
67279;DHT22;54193;53.746;10.058;2023-05-16T01:45:23;10.18;84.11
67279;DHT22;54193;53.746;10.058;2023-05-16T01:48:15;10.29;84.19
67279;DHT22;54193;53.746;10.058;2023-05-16T01:51:03;10.23;83.87
67279;DHT22;54193;53.746;10.058;2023-05-16T01:53:51;10.26;83.75
67279;DHT22;54193;53.746;10.058;2023-05-16T01:56:37;10.23;83.37
67279;DHT22;54193;53.746;10.058;2023-05-16T01:59:23;10.21;83.02
67279;DHT22;54193;53.746;10.058;2023-05-16T02:02:10;10.21;82.21
67279;DHT22;54193;53.746;10.058;2023-05-16T02:04:55;10.23;82.05
67279;DHT22;54193;53.746;10.058;2023-05-16T02:07:41;10.23;82.29
67279;DHT22;54193;53.746;10.058;2023-05-16T02:10:27;10.13;82.52
67279;DHT22;54193;53.746;10.058;2023-05-16T02:13:13;10.12;82.32
67279;DHT22;54193;53.746;10.058;2023-05-16T02:15:58;10.17;82.44
67279;DHT22;54193;53.746;10.058;2023-05-16T02:18:44;10.18;82.16
67279;DHT22;54193;53.746;10.058;2023-05-16T02:21:30;10.18;81.96
67279;DHT22;54193;53.746;10.058;2023-05-16T02:24:16;10.20;82.00
67279;DHT22;54193;53.746;10.058;2023-05-16T02:27:01;10.13;81.87
67279;DHT22;54193;53.746;10.058;2023-05-16T02:29:47;10.05;81.83
67279;DHT22;54193;53.746;10.058;2023-05-16T02:43:39;10.05;81.20
67279;DHT22;54193;53.746;10.058;2023-05-16T02:46:26;10.02;81.14
67279;DHT22;54193;53.746;10.058;2023-05-16T02:49:12;9.99;80.93
67279;DHT22;54193;53.746;10.058;2023-05-16T02:51:57;10.03;81.08
67279;DHT22;54193;53.746;10.058;2023-05-16T02:54:43;9.96;81.10
67279;DHT22;54193;53.746;10.058;2023-05-16T02:57:29;10.05;81.38
67279;DHT22;54193;53.746;10.058;2023-05-16T03:00:14;10.03;80.79
67279;DHT22;54193;53.746;10.058;2023-05-16T03:03:00;10.00;80.43
67279;DHT22;54193;53.746;10.058;2023-05-16T03:05:46;10.05;80.54
67279;DHT22;54193;53.746;10.058;2023-05-16T03:08:33;9.99;80.59
67279;DHT22;54193;53.746;10.058;2023-05-16T03:11:19;9.96;80.60
67279;DHT22;54193;53.746;10.058;2023-05-16T03:14:06;10.02;80.97
67279;DHT22;54193;53.746;10.058;2023-05-16T03:16:52;9.90;81.07
67279;DHT22;54193;53.746;10.058;2023-05-16T03:19:38;9.86;81.58
67279;DHT22;54193;53.746;10.058;2023-05-16T03:22:24;9.86;81.59
67279;DHT22;54193;53.746;10.058;2023-05-16T03:25:09;9.79;81.84
67279;DHT22;54193;53.746;10.058;2023-05-16T03:27:55;9.83;81.85
67279;DHT22;54193;53.746;10.058;2023-05-16T03:30:41;9.82;81.97
67279;DHT22;54193;53.746;10.058;2023-05-16T03:33:26;9.74;81.73
67279;DHT22;54193;53.746;10.058;2023-05-16T03:36:12;9.77;81.88
67279;DHT22;54193;53.746;10.058;2023-05-16T03:38:58;9.79;81.04
67279;DHT22;54193;53.746;10.058;2023-05-16T03:41:43;9.69;81.09
67279;DHT22;54193;53.746;10.058;2023-05-16T03:44:29;9.67;81.28
67279;DHT22;54193;53.746;10.058;2023-05-16T03:47:15;9.72;80.83
67279;DHT22;54193;53.746;10.058;2023-05-16T03:50:01;9.77;80.90
67279;DHT22;54193;53.746;10.058;2023-05-16T03:52:48;9.74;81.09
67279;DHT22;54193;53.746;10.058;2023-05-16T03:55:33;9.69;80.99
67279;DHT22;54193;53.746;10.058;2023-05-16T03:58:19;9.65;81.06
67279;DHT22;54193;53.746;10.058;2023-05-16T04:01:05;9.61;81.21
67279;DHT22;54193;53.746;10.058;2023-05-16T04:03:50;9.62;81.15
67279;DHT22;54193;53.746;10.058;2023-05-16T04:06:36;9.61;81.01
67279;DHT22;54193;53.746;10.058;2023-05-16T04:09:22;9.72;81.15
67279;DHT22;54193;53.746;10.058;2023-05-16T04:12:07;9.59;80.76
67279;DHT22;54193;53.746;10.058;2023-05-16T04:14:53;9.67;80.75
67279;DHT22;54193;53.746;10.058;2023-05-16T04:17:38;9.62;80.52
67279;DHT22;54193;53.746;10.058;2023-05-16T04:20:24;9.57;80.70
67279;DHT22;54193;53.746;10.058;2023-05-16T04:23:10;9.65;79.97
67279;DHT22;54193;53.746;10.058;2023-05-16T04:25:56;9.74;79.75
67279;DHT22;54193;53.746;10.058;2023-05-16T04:28:42;9.71;80.24
67279;DHT22;54193;53.746;10.058;2023-05-16T04:31:27;9.68;79.78
67279;DHT22;54193;53.746;10.058;2023-05-16T04:34:13;9.63;79.17
67279;DHT22;54193;53.746;10.058;2023-05-16T04:37:00;9.59;79.12
67279;DHT22;54193;53.746;10.058;2023-05-16T04:39:46;9.63;79.00
67279;DHT22;54193;53.746;10.058;2023-05-16T04:42:32;9.69;78.19
67279;DHT22;54193;53.746;10.058;2023-05-16T04:45:17;9.67;78.19
67279;DHT22;54193;53.746;10.058;2023-05-16T04:48:03;9.77;77.60
67279;DHT22;54193;53.746;10.058;2023-05-16T04:50:49;9.78;77.74
67279;DHT22;54193;53.746;10.058;2023-05-16T04:53:37;9.75;77.33
67279;DHT22;54193;53.746;10.058;2023-05-16T04:56:22;9.72;77.34
67279;DHT22;54193;53.746;10.058;2023-05-16T04:59:09;9.69;76.61
67279;DHT22;54193;53.746;10.058;2023-05-16T05:01:55;9.68;77.77
67279;DHT22;54193;53.746;10.058;2023-05-16T05:04:40;9.63;76.24
67279;DHT22;54193;53.746;10.058;2023-05-16T05:07:26;9.52;75.90
67279;DHT22;54193;53.746;10.058;2023-05-16T05:10:13;9.50;76.07
67279;DHT22;54193;53.746;10.058;2023-05-16T05:12:59;9.44;74.90
67279;DHT22;54193;53.746;10.058;2023-05-16T05:15:44;9.57;75.37
67279;DHT22;54193;53.746;10.058;2023-05-16T05:18:30;9.55;75.08
67279;DHT22;54193;53.746;10.058;2023-05-16T05:21:16;9.47;74.08
67279;DHT22;54193;53.746;10.058;2023-05-16T05:24:03;9.45;74.00
67279;DHT22;54193;53.746;10.058;2023-05-16T05:26:48;9.48;74.45
67279;DHT22;54193;53.746;10.058;2023-05-16T05:29:34;9.41;74.34
67279;DHT22;54193;53.746;10.058;2023-05-16T05:32:20;9.44;74.31
67279;DHT22;54193;53.746;10.058;2023-05-16T05:35:06;9.67;73.79
67279;DHT22;54193;53.746;10.058;2023-05-16T05:37:51;9.96;72.33
67279;DHT22;54193;53.746;10.058;2023-05-16T05:40:37;10.07;72.06
67279;DHT22;54193;53.746;10.058;2023-05-16T05:43:23;10.09;71.49
67279;DHT22;54193;53.746;10.058;2023-05-16T05:46:09;10.36;70.24
67279;DHT22;54193;53.746;10.058;2023-05-16T05:48:54;10.30;70.84
67279;DHT22;54193;53.746;10.058;2023-05-16T05:51:40;10.44;72.05
67279;DHT22;54193;53.746;10.058;2023-05-16T05:54:26;10.37;71.67
67279;DHT22;54193;53.746;10.058;2023-05-16T05:57:11;10.51;71.93
67279;DHT22;54193;53.746;10.058;2023-05-16T05:59:57;10.51;71.41
67279;DHT22;54193;53.746;10.058;2023-05-16T06:02:43;10.38;71.78
67279;DHT22;54193;53.746;10.058;2023-05-16T06:05:28;10.38;72.23
67279;DHT22;54193;53.746;10.058;2023-05-16T06:08:14;10.78;71.42
67279;DHT22;54193;53.746;10.058;2023-05-16T06:11:00;10.91;70.72
67279;DHT22;54193;53.746;10.058;2023-05-16T06:13:46;10.85;69.27
67279;DHT22;54193;53.746;10.058;2023-05-16T06:16:32;11.36;70.31
67279;DHT22;54193;53.746;10.058;2023-05-16T06:19:18;11.24;67.51
67279;DHT22;54193;53.746;10.058;2023-05-16T06:22:03;11.34;65.34
67279;DHT22;54193;53.746;10.058;2023-05-16T06:24:49;11.53;65.60
67279;DHT22;54193;53.746;10.058;2023-05-16T06:27:35;11.56;65.09
67279;DHT22;54193;53.746;10.058;2023-05-16T06:30:20;11.74;64.17
67279;DHT22;54193;53.746;10.058;2023-05-16T06:33:06;11.84;64.34
67279;DHT22;54193;53.746;10.058;2023-05-16T06:35:52;11.36;65.08
67279;DHT22;54193;53.746;10.058;2023-05-16T06:38:37;10.89;66.76
67279;DHT22;54193;53.746;10.058;2023-05-16T06:41:23;11.12;66.01
67279;DHT22;54193;53.746;10.058;2023-05-16T06:44:08;11.50;65.38
67279;DHT22;54193;53.746;10.058;2023-05-16T06:46:54;11.67;63.59
67279;DHT22;54193;53.746;10.058;2023-05-16T06:49:40;11.38;64.66
67279;DHT22;54193;53.746;10.058;2023-05-16T06:52:25;11.15;65.07
67279;DHT22;54193;53.746;10.058;2023-05-16T06:55:11;11.47;63.98
67279;DHT22;54193;53.746;10.058;2023-05-16T06:57:56;11.86;64.16
67279;DHT22;54193;53.746;10.058;2023-05-16T07:00:42;11.67;62.61
67279;DHT22;54193;53.746;10.058;2023-05-16T07:03:28;11.38;63.54
67279;DHT22;54193;53.746;10.058;2023-05-16T07:06:14;11.24;63.86
67279;DHT22;54193;53.746;10.058;2023-05-16T07:09:00;11.31;64.36
67279;DHT22;54193;53.746;10.058;2023-05-16T07:11:46;11.06;64.80
67279;DHT22;54193;53.746;10.058;2023-05-16T07:14:32;11.20;64.22
67279;DHT22;54193;53.746;10.058;2023-05-16T07:17:17;11.61;63.72
67279;DHT22;54193;53.746;10.058;2023-05-16T07:20:04;11.70;63.70
67279;DHT22;54193;53.746;10.058;2023-05-16T07:22:50;12.47;62.57
67279;DHT22;54193;53.746;10.058;2023-05-16T07:25:37;12.44;65.94
67279;DHT22;54193;53.746;10.058;2023-05-16T07:28:22;12.22;64.48
67279;DHT22;54193;53.746;10.058;2023-05-16T07:31:08;12.64;64.21
67279;DHT22;54193;53.746;10.058;2023-05-16T07:33:54;12.02;63.32
67279;DHT22;54193;53.746;10.058;2023-05-16T07:36:39;12.19;65.02
67279;DHT22;54193;53.746;10.058;2023-05-16T07:39:25;11.91;65.34
67279;DHT22;54193;53.746;10.058;2023-05-16T07:42:11;12.36;63.63
67279;DHT22;54193;53.746;10.058;2023-05-16T07:44:57;13.02;62.40
67279;DHT22;54193;53.746;10.058;2023-05-16T07:47:42;13.33;60.71
67279;DHT22;54193;53.746;10.058;2023-05-16T07:50:28;13.63;60.46
67279;DHT22;54193;53.746;10.058;2023-05-16T07:53:14;12.91;60.76
67279;DHT22;54193;53.746;10.058;2023-05-16T07:55:59;13.44;56.93
67279;DHT22;54193;53.746;10.058;2023-05-16T07:58:45;13.29;54.32
67279;DHT22;54193;53.746;10.058;2023-05-16T08:01:33;13.14;54.57
67279;DHT22;54193;53.746;10.058;2023-05-16T08:04:18;12.76;56.23
67279;DHT22;54193;53.746;10.058;2023-05-16T08:07:04;12.56;55.87
67279;DHT22;54193;53.746;10.058;2023-05-16T08:09:50;12.78;56.19
67279;DHT22;54193;53.746;10.058;2023-05-16T08:12:36;13.61;55.43
67279;DHT22;54193;53.746;10.058;2023-05-16T08:15:21;14.69;53.55
67279;DHT22;54193;53.746;10.058;2023-05-16T08:18:12;14.85;50.68
67279;DHT22;54193;53.746;10.058;2023-05-16T08:20:59;14.52;51.33
67279;DHT22;54193;53.746;10.058;2023-05-16T08:23:44;13.78;51.85
67279;DHT22;54193;53.746;10.058;2023-05-16T08:26:31;14.28;52.85
67279;DHT22;54193;53.746;10.058;2023-05-16T08:29:17;14.70;51.94
67279;DHT22;54193;53.746;10.058;2023-05-16T08:32:02;15.34;51.32
67279;DHT22;54193;53.746;10.058;2023-05-16T08:34:48;14.70;52.82
67279;DHT22;54193;53.746;10.058;2023-05-16T08:37:33;14.87;52.22
67279;DHT22;54193;53.746;10.058;2023-05-16T08:40:21;15.01;52.43
67279;DHT22;54193;53.746;10.058;2023-05-16T08:43:07;15.29;51.08
67279;DHT22;54193;53.746;10.058;2023-05-16T08:45:52;15.17;51.75
67279;DHT22;54193;53.746;10.058;2023-05-16T08:48:41;14.55;53.73
67279;DHT22;54193;53.746;10.058;2023-05-16T08:51:31;12.99;55.68
67279;DHT22;54193;53.746;10.058;2023-05-16T08:54:19;13.26;54.98
67279;DHT22;54193;53.746;10.058;2023-05-16T08:57:07;14.32;54.39
67279;DHT22;54193;53.746;10.058;2023-05-16T08:59:55;15.11;51.99
67279;DHT22;54193;53.746;10.058;2023-05-16T09:02:42;15.56;49.58
67279;DHT22;54193;53.746;10.058;2023-05-16T09:05:28;15.69;50.41
67279;DHT22;54193;53.746;10.058;2023-05-16T09:08:15;14.49;51.89
67279;DHT22;54193;53.746;10.058;2023-05-16T09:11:01;14.60;50.82
67279;DHT22;54193;53.746;10.058;2023-05-16T09:13:48;15.57;47.63
67279;DHT22;54193;53.746;10.058;2023-05-16T09:16:34;17.55;48.46
67279;DHT22;54193;53.746;10.058;2023-05-16T09:19:21;15.70;49.20
67279;DHT22;54193;53.746;10.058;2023-05-16T09:22:12;14.35;51.85
67279;DHT22;54193;53.746;10.058;2023-05-16T09:24:58;13.29;53.16
67279;DHT22;54193;53.746;10.058;2023-05-16T09:27:51;12.25;54.21
67279;DHT22;54193;53.746;10.058;2023-05-16T09:30:37;13.40;54.01
67279;DHT22;54193;53.746;10.058;2023-05-16T09:33:26;13.85;51.84
67279;DHT22;54193;53.746;10.058;2023-05-16T09:36:12;15.10;49.49
67279;DHT22;54193;53.746;10.058;2023-05-16T09:38:59;13.74;50.37
67279;DHT22;54193;53.746;10.058;2023-05-16T09:41:50;13.35;54.26
67279;DHT22;54193;53.746;10.058;2023-05-16T09:44:36;14.09;53.76
67279;DHT22;54193;53.746;10.058;2023-05-16T09:47:22;15.42;50.93
67279;DHT22;54193;53.746;10.058;2023-05-16T09:50:08;16.65;48.69
67279;DHT22;54193;53.746;10.058;2023-05-16T09:52:54;16.49;45.40
67279;DHT22;54193;53.746;10.058;2023-05-16T09:55:41;15.24;48.13
67279;DHT22;54193;53.746;10.058;2023-05-16T09:58:28;14.67;49.25
67279;DHT22;54193;53.746;10.058;2023-05-16T10:01:14;14.98;50.11
67279;DHT22;54193;53.746;10.058;2023-05-16T10:04:00;14.37;48.48
67279;DHT22;54193;53.746;10.058;2023-05-16T10:06:46;13.95;50.66
67279;DHT22;54193;53.746;10.058;2023-05-16T10:09:33;13.84;51.66
67279;DHT22;54193;53.746;10.058;2023-05-16T10:12:22;13.59;52.00
67279;DHT22;54193;53.746;10.058;2023-05-16T10:15:11;13.77;52.31
67279;DHT22;54193;53.746;10.058;2023-05-16T10:17:58;13.92;52.19
67279;DHT22;54193;53.746;10.058;2023-05-16T10:20:46;13.47;57.41
67279;DHT22;54193;53.746;10.058;2023-05-16T10:23:33;13.29;55.03
67279;DHT22;54193;53.746;10.058;2023-05-16T10:26:21;13.29;52.86
67279;DHT22;54193;53.746;10.058;2023-05-16T10:29:08;13.97;54.06
67279;DHT22;54193;53.746;10.058;2023-05-16T10:31:54;14.02;53.55
67279;DHT22;54193;53.746;10.058;2023-05-16T10:34:41;13.60;54.40
67279;DHT22;54193;53.746;10.058;2023-05-16T10:37:27;13.40;53.51
67279;DHT22;54193;53.746;10.058;2023-05-16T10:40:13;13.18;53.53
67279;DHT22;54193;53.746;10.058;2023-05-16T10:43:02;13.75;52.94
67279;DHT22;54193;53.746;10.058;2023-05-16T10:45:53;14.00;51.54
67279;DHT22;54193;53.746;10.058;2023-05-16T10:48:41;13.82;49.96
67279;DHT22;54193;53.746;10.058;2023-05-16T10:51:37;13.71;50.97
67279;DHT22;54193;53.746;10.058;2023-05-16T10:54:39;13.69;54.49
67279;DHT22;54193;53.746;10.058;2023-05-16T10:57:25;13.88;53.00
67279;DHT22;54193;53.746;10.058;2023-05-16T11:00:20;14.52;50.77
67279;DHT22;54193;53.746;10.058;2023-05-16T11:03:20;14.55;51.36
67279;DHT22;54193;53.746;10.058;2023-05-16T11:06:09;13.97;52.54
67279;DHT22;54193;53.746;10.058;2023-05-16T11:11:59;13.54;52.52
67279;DHT22;54193;53.746;10.058;2023-05-16T11:14:49;13.66;49.81
67279;DHT22;54193;53.746;10.058;2023-05-16T11:17:41;13.43;50.84
67279;DHT22;54193;53.746;10.058;2023-05-16T11:20:32;13.59;51.35
67279;DHT22;54193;53.746;10.058;2023-05-16T11:23:20;12.98;50.63
67279;DHT22;54193;53.746;10.058;2023-05-16T11:26:06;12.74;50.78
67279;DHT22;54193;53.746;10.058;2023-05-16T11:28:52;12.58;51.40
67279;DHT22;54193;53.746;10.058;2023-05-16T11:31:39;12.83;54.23
67279;DHT22;54193;53.746;10.058;2023-05-16T11:34:25;13.44;53.53
67279;DHT22;54193;53.746;10.058;2023-05-16T11:37:10;14.08;54.59
67279;DHT22;54193;53.746;10.058;2023-05-16T11:40:00;14.57;50.07
67279;DHT22;54193;53.746;10.058;2023-05-16T11:42:47;14.57;49.42
67279;DHT22;54193;53.746;10.058;2023-05-16T11:45:32;14.77;51.73
67279;DHT22;54193;53.746;10.058;2023-05-16T11:48:18;13.78;50.06
67279;DHT22;54193;53.746;10.058;2023-05-16T11:51:04;12.88;51.11
67279;DHT22;54193;53.746;10.058;2023-05-16T11:53:50;12.44;53.24
67279;DHT22;54193;53.746;10.058;2023-05-16T11:56:36;12.46;57.93
67279;DHT22;54193;53.746;10.058;2023-05-16T11:59:22;12.78;56.24
67279;DHT22;54193;53.746;10.058;2023-05-16T12:02:08;12.34;55.53
67279;DHT22;54193;53.746;10.058;2023-05-16T12:04:54;12.26;55.87
67279;DHT22;54193;53.746;10.058;2023-05-16T12:07:42;12.39;54.10
67279;DHT22;54193;53.746;10.058;2023-05-16T12:10:30;11.99;54.66
67279;DHT22;54193;53.746;10.058;2023-05-16T12:13:17;12.13;55.96
67279;DHT22;54193;53.746;10.058;2023-05-16T12:16:03;12.47;57.14
67279;DHT22;54193;53.746;10.058;2023-05-16T12:18:49;13.18;58.92
67279;DHT22;54193;53.746;10.058;2023-05-16T12:21:35;13.26;56.30
67279;DHT22;54193;53.746;10.058;2023-05-16T12:24:20;13.74;57.07
67279;DHT22;54193;53.746;10.058;2023-05-16T12:27:07;13.25;57.49
67279;DHT22;54193;53.746;10.058;2023-05-16T12:29:53;12.83;59.24
67279;DHT22;54193;53.746;10.058;2023-05-16T12:32:38;12.67;58.99
67279;DHT22;54193;53.746;10.058;2023-05-16T12:35:25;13.18;58.33
67279;DHT22;54193;53.746;10.058;2023-05-16T12:38:15;13.20;60.48
67279;DHT22;54193;53.746;10.058;2023-05-16T12:41:01;13.69;57.62
67279;DHT22;54193;53.746;10.058;2023-05-16T12:43:48;13.40;57.66
67279;DHT22;54193;53.746;10.058;2023-05-16T12:46:34;13.25;58.83
67279;DHT22;54193;53.746;10.058;2023-05-16T12:49:20;13.29;58.01
67279;DHT22;54193;53.746;10.058;2023-05-16T12:52:16;12.49;62.38
67279;DHT22;54193;53.746;10.058;2023-05-16T12:55:02;12.13;67.94
67279;DHT22;54193;53.746;10.058;2023-05-16T12:57:48;11.81;66.31
67279;DHT22;54193;53.746;10.058;2023-05-16T13:00:34;12.13;66.88
67279;DHT22;54193;53.746;10.058;2023-05-16T13:03:20;12.43;69.72
67279;DHT22;54193;53.746;10.058;2023-05-16T13:06:06;12.70;66.23
67279;DHT22;54193;53.746;10.058;2023-05-16T13:08:53;12.61;62.13
67279;DHT22;54193;53.746;10.058;2023-05-16T13:11:39;12.88;55.58
67279;DHT22;54193;53.746;10.058;2023-05-16T13:14:25;12.98;56.15
67279;DHT22;54193;53.746;10.058;2023-05-16T13:17:11;12.65;57.15
67279;DHT22;54193;53.746;10.058;2023-05-16T13:19:57;12.83;55.72
67279;DHT22;54193;53.746;10.058;2023-05-16T13:22:43;12.49;58.42
67279;DHT22;54193;53.746;10.058;2023-05-16T13:25:29;12.49;59.29
67279;DHT22;54193;53.746;10.058;2023-05-16T13:28:15;12.83;59.73
67279;DHT22;54193;53.746;10.058;2023-05-16T13:31:01;12.71;59.41
67279;DHT22;54193;53.746;10.058;2023-05-16T13:33:47;12.81;60.67
67279;DHT22;54193;53.746;10.058;2023-05-16T13:36:33;12.47;61.00
67279;DHT22;54193;53.746;10.058;2023-05-16T13:39:18;12.26;60.89
67279;DHT22;54193;53.746;10.058;2023-05-16T13:42:04;12.47;59.84
67279;DHT22;54193;53.746;10.058;2023-05-16T13:44:50;12.76;59.28
67279;DHT22;54193;53.746;10.058;2023-05-16T13:47:35;12.95;59.51
67279;DHT22;54193;53.746;10.058;2023-05-16T13:50:21;13.25;59.15
67279;DHT22;54193;53.746;10.058;2023-05-16T13:53:07;13.44;58.11
67279;DHT22;54193;53.746;10.058;2023-05-16T13:55:53;13.39;59.32
67279;DHT22;54193;53.746;10.058;2023-05-16T13:58:38;12.99;57.59
67279;DHT22;54193;53.746;10.058;2023-05-16T14:01:25;13.50;58.36
67279;DHT22;54193;53.746;10.058;2023-05-16T14:04:10;13.52;57.12
67279;DHT22;54193;53.746;10.058;2023-05-16T14:06:56;13.74;55.92
67279;DHT22;54193;53.746;10.058;2023-05-16T14:09:42;13.81;55.84
67279;DHT22;54193;53.746;10.058;2023-05-16T14:12:28;14.07;53.77
67279;DHT22;54193;53.746;10.058;2023-05-16T14:15:15;13.94;55.02
67279;DHT22;54193;53.746;10.058;2023-05-16T14:18:01;13.47;55.34
67279;DHT22;54193;53.746;10.058;2023-05-16T14:20:48;12.44;59.11
67279;DHT22;54193;53.746;10.058;2023-05-16T14:23:35;11.05;66.61
67279;DHT22;54193;53.746;10.058;2023-05-16T14:26:20;10.02;75.05
67279;DHT22;54193;53.746;10.058;2023-05-16T14:29:09;9.51;77.04
67279;DHT22;54193;53.746;10.058;2023-05-16T14:31:55;9.16;76.82
67279;DHT22;54193;53.746;10.058;2023-05-16T14:34:40;9.62;75.75
67279;DHT22;54193;53.746;10.058;2023-05-16T14:37:26;9.99;76.01
67279;DHT22;54193;53.746;10.058;2023-05-16T14:40:12;10.38;74.38
67279;DHT22;54193;53.746;10.058;2023-05-16T14:42:57;10.65;72.16
67279;DHT22;54193;53.746;10.058;2023-05-16T14:45:43;11.00;71.28
67279;DHT22;54193;53.746;10.058;2023-05-16T14:48:29;11.13;67.46
67279;DHT22;54193;53.746;10.058;2023-05-16T14:51:15;11.43;66.03
67279;DHT22;54193;53.746;10.058;2023-05-16T14:54:01;11.79;63.21
67279;DHT22;54193;53.746;10.058;2023-05-16T14:56:47;11.88;61.64
67279;DHT22;54193;53.746;10.058;2023-05-16T14:59:32;12.08;60.28
67279;DHT22;54193;53.746;10.058;2023-05-16T15:02:18;12.32;60.06
67279;DHT22;54193;53.746;10.058;2023-05-16T15:05:04;12.54;60.96
67279;DHT22;54193;53.746;10.058;2023-05-16T15:07:51;12.57;60.28
67279;DHT22;54193;53.746;10.058;2023-05-16T15:10:36;12.11;58.21
67279;DHT22;54193;53.746;10.058;2023-05-16T15:13:22;11.68;60.10
67279;DHT22;54193;53.746;10.058;2023-05-16T15:16:07;11.50;62.50
67279;DHT22;54193;53.746;10.058;2023-05-16T15:18:53;11.64;63.25
67279;DHT22;54193;53.746;10.058;2023-05-16T15:21:39;11.75;62.18
67279;DHT22;54193;53.746;10.058;2023-05-16T15:24:25;11.95;63.49
67279;DHT22;54193;53.746;10.058;2023-05-16T15:27:11;12.06;63.61
67279;DHT22;54193;53.746;10.058;2023-05-16T15:29:57;12.34;63.45
67279;DHT22;54193;53.746;10.058;2023-05-16T15:32:42;12.43;65.15
67279;DHT22;54193;53.746;10.058;2023-05-16T15:35:28;12.33;65.11
67279;DHT22;54193;53.746;10.058;2023-05-16T15:38:14;12.05;66.23
67279;DHT22;54193;53.746;10.058;2023-05-16T15:41:00;11.03;76.84
67279;DHT22;54193;53.746;10.058;2023-05-16T15:43:46;10.09;83.27
67279;DHT22;54193;53.746;10.058;2023-05-16T15:46:32;9.69;83.89
67279;DHT22;54193;53.746;10.058;2023-05-16T15:49:18;10.13;83.86
67279;DHT22;54193;53.746;10.058;2023-05-16T15:52:05;10.24;83.01
67279;DHT22;54193;53.746;10.058;2023-05-16T15:54:50;10.20;82.78
67279;DHT22;54193;53.746;10.058;2023-05-16T15:57:36;10.48;83.16
67279;DHT22;54193;53.746;10.058;2023-05-16T16:00:22;10.44;81.19
67279;DHT22;54193;53.746;10.058;2023-05-16T16:03:08;10.29;79.77
67279;DHT22;54193;53.746;10.058;2023-05-16T16:05:54;10.33;79.59
67279;DHT22;54193;53.746;10.058;2023-05-16T16:08:40;10.62;79.20
67279;DHT22;54193;53.746;10.058;2023-05-16T16:11:26;10.78;79.59
67279;DHT22;54193;53.746;10.058;2023-05-16T16:14:11;11.05;79.59
67279;DHT22;54193;53.746;10.058;2023-05-16T16:16:57;10.99;78.11
67279;DHT22;54193;53.746;10.058;2023-05-16T16:19:43;10.91;77.06
67279;DHT22;54193;53.746;10.058;2023-05-16T16:22:28;11.00;77.05
67279;DHT22;54193;53.746;10.058;2023-05-16T16:25:14;10.88;75.92
67279;DHT22;54193;53.746;10.058;2023-05-16T16:28:00;10.81;74.72
67279;DHT22;54193;53.746;10.058;2023-05-16T16:30:46;11.03;74.97
67279;DHT22;54193;53.746;10.058;2023-05-16T16:33:34;11.29;75.61
67279;DHT22;54193;53.746;10.058;2023-05-16T16:36:20;11.23;73.27
67279;DHT22;54193;53.746;10.058;2023-05-16T16:39:05;11.29;73.13
67279;DHT22;54193;53.746;10.058;2023-05-16T16:41:51;11.34;74.57
67279;DHT22;54193;53.746;10.058;2023-05-16T16:44:37;11.24;73.23
67279;DHT22;54193;53.746;10.058;2023-05-16T16:47:22;11.10;73.06
67279;DHT22;54193;53.746;10.058;2023-05-16T16:50:09;11.15;74.61
67279;DHT22;54193;53.746;10.058;2023-05-16T16:52:55;10.92;75.63
67279;DHT22;54193;53.746;10.058;2023-05-16T16:55:43;10.89;75.58
67279;DHT22;54193;53.746;10.058;2023-05-16T16:58:29;10.88;77.06
67279;DHT22;54193;53.746;10.058;2023-05-16T17:01:15;10.72;80.16
67279;DHT22;54193;53.746;10.058;2023-05-16T17:04:00;10.17;82.29
67279;DHT22;54193;53.746;10.058;2023-05-16T17:06:46;9.93;82.90
67279;DHT22;54193;53.746;10.058;2023-05-16T17:09:34;9.81;83.43
67279;DHT22;54193;53.746;10.058;2023-05-16T17:12:20;9.77;85.38
67279;DHT22;54193;53.746;10.058;2023-05-16T17:15:06;9.61;85.32
67279;DHT22;54193;53.746;10.058;2023-05-16T17:17:52;9.65;85.08
67279;DHT22;54193;53.746;10.058;2023-05-16T17:20:38;9.59;84.84
67279;DHT22;54193;53.746;10.058;2023-05-16T17:23:24;9.59;85.08
67279;DHT22;54193;53.746;10.058;2023-05-16T17:26:10;9.50;84.81
67279;DHT22;54193;53.746;10.058;2023-05-16T17:28:57;9.55;85.32
67279;DHT22;54193;53.746;10.058;2023-05-16T17:31:44;9.54;85.23
67279;DHT22;54193;53.746;10.058;2023-05-16T17:34:30;9.54;86.08
67279;DHT22;54193;53.746;10.058;2023-05-16T17:37:17;9.62;86.90
67279;DHT22;54193;53.746;10.058;2023-05-16T17:40:03;9.48;86.50
67279;DHT22;54193;53.746;10.058;2023-05-16T17:42:50;9.59;88.31
67279;DHT22;54193;53.746;10.058;2023-05-16T17:45:35;9.45;87.30